createdAt,value
2023-03-30T00:00:35.273Z,5.35
2023-03-30T00:03:03.026Z,4.78
2023-03-30T00:05:30.349Z,4.07
2023-03-30T00:07:57.648Z,4.75
2023-03-30T00:10:24.705Z,5.20
2023-03-30T00:12:52.801Z,6.35
2023-03-30T00:15:22.385Z,6.63
2023-03-30T00:17:51.398Z,5.18
2023-03-30T00:20:18.571Z,4.53
2023-03-30T00:22:47.245Z,6.25
2023-03-30T00:25:18.186Z,5.88
2023-03-30T00:27:46.484Z,4.30
2023-03-30T00:30:15.372Z,4.80
2023-03-30T00:32:43.182Z,3.67
2023-03-30T00:35:10.963Z,5.22
2023-03-30T00:37:38.091Z,3.70
2023-03-30T00:40:07.992Z,4.85
2023-03-30T00:42:36.934Z,5.25
2023-03-30T00:45:26.356Z,5.70
2023-03-30T00:47:57.373Z,4.60
2023-03-30T00:50:29.933Z,7.18
2023-03-30T00:52:58.815Z,5.65
2023-03-30T00:55:28.614Z,3.85
2023-03-30T00:57:56.458Z,4.55
2023-03-30T01:00:23.748Z,4.07
2023-03-30T01:02:57.133Z,3.45
2023-03-30T01:05:24.868Z,4.28
2023-03-30T01:07:52.354Z,5.40
2023-03-30T01:10:19.861Z,4.70
2023-03-30T01:12:47.383Z,4.07
2023-03-30T01:15:15.913Z,2.90
2023-03-30T01:18:11.162Z,3.90
2023-03-30T01:20:38.501Z,3.08
2023-03-30T01:23:27.203Z,4.53
2023-03-30T01:26:14.614Z,3.53
2023-03-30T01:29:21.124Z,4.20
2023-03-30T01:32:18.924Z,2.83
2023-03-30T01:35:00.419Z,3.45
2023-03-30T01:37:27.505Z,4.30
2023-03-30T01:39:57.793Z,3.08
2023-03-30T01:42:38.247Z,3.92
2023-03-30T01:45:05.935Z,4.97
2023-03-30T01:48:02.453Z,4.28
2023-03-30T01:50:50.749Z,4.68
2023-03-30T01:53:41.502Z,4.63
2023-03-30T01:56:13.872Z,4.03
2023-03-30T01:58:48.462Z,3.60
2023-03-30T02:01:17.484Z,3.83
2023-03-30T02:03:49.580Z,4.43
2023-03-30T02:06:23.247Z,4.47
2023-03-30T02:08:51.198Z,4.47
2023-03-30T02:11:18.259Z,4.53
2023-03-30T02:13:47.298Z,7.55
2023-03-30T02:16:17.352Z,6.22
2023-03-30T02:18:44.858Z,7.57
2023-03-30T02:21:12.347Z,4.65
2023-03-30T02:23:41.838Z,8.77
2023-03-30T02:26:10.485Z,4.13
2023-03-30T02:28:37.616Z,7.05
2023-03-30T02:31:05.574Z,5.00
2023-03-30T02:33:59.039Z,3.47
2023-03-30T02:37:00.351Z,3.85
2023-03-30T02:39:28.775Z,11.65
2023-03-30T02:41:55.844Z,5.22
2023-03-30T02:44:48.684Z,6.07
2023-03-30T02:47:31.254Z,8.32
2023-03-30T02:50:05.993Z,4.47
2023-03-30T02:52:58.948Z,9.18
2023-03-30T02:55:34.711Z,8.60
2023-03-30T02:58:25.672Z,6.63
2023-03-30T03:00:59.267Z,6.72
2023-03-30T03:03:31.645Z,5.70
2023-03-30T03:06:02.552Z,6.53
2023-03-30T03:08:30.820Z,5.68
2023-03-30T03:10:57.455Z,6.03
2023-03-30T03:13:24.531Z,3.50
2023-03-30T03:15:56.031Z,6.45
2023-03-30T03:18:23.483Z,9.48
2023-03-30T03:20:51.414Z,3.55
2023-03-30T03:23:18.061Z,6.85
2023-03-30T03:25:45.311Z,11.48
2023-03-30T03:28:12.403Z,6.65
2023-03-30T03:30:39.534Z,5.32
2023-03-30T03:33:06.455Z,5.55
2023-03-30T03:35:33.588Z,3.88
2023-03-30T03:38:00.802Z,5.20
2023-03-30T03:40:27.890Z,7.13
2023-03-30T03:42:55.281Z,5.25
2023-03-30T03:45:22.372Z,4.75
2023-03-30T03:47:51.469Z,10.95
2023-03-30T03:50:18.706Z,7.95
2023-03-30T03:52:45.872Z,6.75
2023-03-30T03:55:13.096Z,7.85
2023-03-30T03:57:40.242Z,6.72
2023-03-30T04:00:15.502Z,4.35
2023-03-30T04:02:43.268Z,6.68
2023-03-30T04:05:10.635Z,8.70
2023-03-30T04:07:37.749Z,11.90
2023-03-30T04:10:05.235Z,5.45
2023-03-30T04:12:32.383Z,4.88
2023-03-30T04:14:59.461Z,5.60
2023-03-30T04:17:26.809Z,6.40
2023-03-30T04:19:54.640Z,5.38
2023-03-30T04:22:24.277Z,8.50
2023-03-30T04:24:51.810Z,5.05
2023-03-30T04:27:19.270Z,7.15
2023-03-30T04:29:46.418Z,6.40
2023-03-30T04:32:13.578Z,7.07
2023-03-30T04:34:42.695Z,6.82
2023-03-30T04:37:10.479Z,7.35
2023-03-30T04:39:38.524Z,9.73
2023-03-30T04:42:06.506Z,9.68
2023-03-30T04:44:33.537Z,9.90
2023-03-30T04:47:00.696Z,6.43
2023-03-30T04:49:27.803Z,13.23
2023-03-30T04:51:54.976Z,10.23
2023-03-30T04:54:22.208Z,10.93
2023-03-30T04:56:49.576Z,7.00
2023-03-30T04:59:16.817Z,13.05
2023-03-30T05:01:45.334Z,12.02
2023-03-30T05:04:12.482Z,9.27
2023-03-30T05:06:39.613Z,10.93
2023-03-30T05:09:07.877Z,6.53
2023-03-30T05:11:35.102Z,5.50
2023-03-30T05:14:02.123Z,10.25
2023-03-30T05:16:29.174Z,11.40
2023-03-30T05:18:56.721Z,10.73
2023-03-30T05:21:23.867Z,9.35
2023-03-30T05:23:50.918Z,11.27
2023-03-30T05:26:18.122Z,10.50
2023-03-30T05:28:45.525Z,4.18
2023-03-30T05:31:12.686Z,13.82
2023-03-30T05:33:41.433Z,7.47
2023-03-30T05:36:10.662Z,8.32
2023-03-30T05:38:37.951Z,13.63
2023-03-30T05:41:06.861Z,14.98
2023-03-30T05:43:34.630Z,10.13
2023-03-30T05:46:02.551Z,10.95
2023-03-30T05:48:30.338Z,10.10
2023-03-30T05:50:57.465Z,11.38
2023-03-30T05:53:24.197Z,14.18
2023-03-30T05:55:51.541Z,12.85
2023-03-30T05:58:18.713Z,8.02
2023-03-30T06:00:48.126Z,9.65
2023-03-30T06:03:14.996Z,9.05
2023-03-30T06:05:43.703Z,9.73
2023-03-30T06:08:11.845Z,8.85
2023-03-30T06:10:38.988Z,14.15
2023-03-30T06:13:06.364Z,27.52
2023-03-30T06:15:33.698Z,17.08
2023-03-30T06:18:00.698Z,15.32
2023-03-30T06:20:27.785Z,8.43
2023-03-30T06:22:54.997Z,9.75
2023-03-30T06:25:23.926Z,12.00
2023-03-30T06:27:51.025Z,11.68
2023-03-30T06:30:18.158Z,13.45
2023-03-30T06:32:45.257Z,9.38
2023-03-30T06:35:13.363Z,10.80
2023-03-30T06:37:40.600Z,13.43
2023-03-30T06:40:15.388Z,20.05
2023-03-30T06:42:44.152Z,51.85
2023-03-30T06:45:11.805Z,14.70
2023-03-30T06:47:39.252Z,17.83
2023-03-30T06:50:06.740Z,9.85
2023-03-30T06:52:36.002Z,8.63
2023-03-30T06:55:03.431Z,10.80
2023-03-30T06:57:30.895Z,4.88
2023-03-30T06:59:58.015Z,1.13
2023-03-30T07:02:26.335Z,0.10
2023-03-30T07:04:53.540Z,0.10
2023-03-30T07:07:21.036Z,1.02
2023-03-30T07:09:48.104Z,0.30
2023-03-30T07:12:15.313Z,0.20
2023-03-30T07:14:42.422Z,0.30
2023-03-30T07:17:09.592Z,0.10
2023-03-30T07:19:36.778Z,1.15
2023-03-30T07:22:04.340Z,0.13
2023-03-30T07:24:32.297Z,1.45
2023-03-30T07:26:59.366Z,0.20
2023-03-30T07:29:28.262Z,1.45
2023-03-30T07:31:56.719Z,0.93
2023-03-30T07:34:23.995Z,0.20
2023-03-30T07:36:51.061Z,0.10
2023-03-30T07:39:18.516Z,1.10
2023-03-30T07:41:45.411Z,0.20
2023-03-30T07:44:12.508Z,1.88
2023-03-30T07:46:39.726Z,0.10
2023-03-30T07:49:06.893Z,0.17
2023-03-30T07:51:34.530Z,0.20
2023-03-30T07:54:01.700Z,0.10
2023-03-30T07:56:28.813Z,0.20
2023-03-30T07:58:57.125Z,0.43
2023-03-30T08:01:24.388Z,0.10
2023-03-30T08:03:51.655Z,1.52
2023-03-30T08:06:18.761Z,0.57
2023-03-30T08:08:46.480Z,0.30
2023-03-30T08:11:15.369Z,1.00
2023-03-30T08:13:43.038Z,0.10
2023-03-30T08:16:10.211Z,0.43
2023-03-30T08:18:37.518Z,0.20
2023-03-30T08:21:04.978Z,1.27
2023-03-30T08:23:32.433Z,0.10
2023-03-30T08:26:01.061Z,0.82
2023-03-30T08:28:29.273Z,1.88
2023-03-30T08:30:56.354Z,1.00
2023-03-30T08:33:24.166Z,0.10
2023-03-30T08:35:51.311Z,1.27
2023-03-30T08:38:19.191Z,0.38
2023-03-30T08:40:47.745Z,0.55
2023-03-30T08:43:42.596Z,0.32
2023-03-30T08:46:14.972Z,0.85
2023-03-30T08:48:42.975Z,0.57
2023-03-30T08:51:28.098Z,2.17
2023-03-30T08:53:59.172Z,0.10
2023-03-30T08:56:32.850Z,0.20
2023-03-30T08:59:05.014Z,4.63
2023-03-30T09:01:48.489Z,1.02
2023-03-30T09:04:35.662Z,0.55
2023-03-30T09:07:06.929Z,0.15
2023-03-30T09:09:38.390Z,0.17
2023-03-30T09:12:07.527Z,0.30
2023-03-30T09:14:40.442Z,0.40
2023-03-30T09:17:07.597Z,0.28
2023-03-30T09:19:37.007Z,0.55
2023-03-30T09:22:05.853Z,0.17
2023-03-30T09:24:33.375Z,0.70
2023-03-30T09:27:03.226Z,0.30
2023-03-30T09:29:32.726Z,0.10
2023-03-30T09:31:59.727Z,0.10
2023-03-30T09:34:34.875Z,0.10
2023-03-30T09:37:01.912Z,0.10
2023-03-30T09:39:32.979Z,0.28
2023-03-30T09:42:20.591Z,0.17
2023-03-30T09:44:52.640Z,0.50
2023-03-30T09:47:19.807Z,0.57
2023-03-30T09:49:47.251Z,0.32
2023-03-30T09:52:22.645Z,0.35
2023-03-30T09:54:49.385Z,0.10
2023-03-30T09:57:24.703Z,0.10
2023-03-30T09:59:55.732Z,4.47
2023-03-30T10:02:25.344Z,0.90
2023-03-30T10:04:52.784Z,1.58
2023-03-30T10:07:24.388Z,0.20
2023-03-30T10:09:52.289Z,0.80
2023-03-30T10:12:19.853Z,0.20
2023-03-30T10:14:46.932Z,0.82
2023-03-30T10:17:23.217Z,0.10
2023-03-30T10:20:00.396Z,0.60
2023-03-30T10:22:37.876Z,2.58
2023-03-30T10:25:10.144Z,0.10
2023-03-30T10:27:40.978Z,0.73
2023-03-30T10:30:17.609Z,1.17
2023-03-30T10:32:47.114Z,0.10
2023-03-30T10:35:18.404Z,0.10
2023-03-30T10:37:47.761Z,2.08
2023-03-30T10:40:27.158Z,0.25
2023-03-30T10:42:55.834Z,0.22
2023-03-30T10:45:32.597Z,0.35
2023-03-30T10:48:00.865Z,0.10
2023-03-30T10:50:28.036Z,0.10
2023-03-30T10:53:20.424Z,0.10
2023-03-30T10:55:53.287Z,0.10
2023-03-30T10:58:34.856Z,0.55
2023-03-30T11:01:30.537Z,3.00
2023-03-30T11:04:16.116Z,0.35
2023-03-30T11:06:47.879Z,1.88
2023-03-30T11:09:18.376Z,0.10
2023-03-30T11:11:51.267Z,0.47
2023-03-30T11:14:38.216Z,0.10
2023-03-30T11:17:11.201Z,0.28
2023-03-30T11:19:42.800Z,0.10
2023-03-30T11:22:39.082Z,0.10
2023-03-30T11:25:19.264Z,0.10
2023-03-30T11:27:56.120Z,0.10
2023-03-30T11:30:28.605Z,0.25
2023-03-30T11:33:18.169Z,0.43
2023-03-30T11:35:50.968Z,1.05
2023-03-30T11:38:38.921Z,0.47
2023-03-30T11:41:13.236Z,0.40
2023-03-30T11:43:40.388Z,0.22
2023-03-30T11:46:10.688Z,0.25
2023-03-30T11:48:50.970Z,1.85
2023-03-30T11:51:19.292Z,0.57
2023-03-30T11:54:00.339Z,0.50
2023-03-30T11:56:28.446Z,0.30
2023-03-30T11:59:05.942Z,0.28
2023-03-30T12:01:36.348Z,0.10
2023-03-30T12:04:09.764Z,0.10
2023-03-30T12:06:40.768Z,0.10
2023-03-30T12:09:28.373Z,0.30
2023-03-30T12:12:16.553Z,0.40
2023-03-30T12:15:04.444Z,0.10
2023-03-30T12:17:54.741Z,0.20
2023-03-30T12:20:21.914Z,0.15
2023-03-30T12:22:55.267Z,0.10
2023-03-30T12:25:47.897Z,0.10
2023-03-30T12:28:17.700Z,0.22
2023-03-30T12:30:53.594Z,0.10
2023-03-30T12:33:34.240Z,0.10
2023-03-30T12:36:03.515Z,0.10
2023-03-30T12:38:46.775Z,0.10
2023-03-30T12:41:16.639Z,0.10
2023-03-30T12:43:49.701Z,0.38
2023-03-30T12:46:28.151Z,0.10
2023-03-30T12:49:09.422Z,0.10
2023-03-30T12:52:03.436Z,0.10
2023-03-30T12:55:10.098Z,0.20
2023-03-30T12:58:02.337Z,0.20
2023-03-30T13:00:29.485Z,0.10
2023-03-30T13:02:56.821Z,0.13
2023-03-30T13:05:36.898Z,0.30
2023-03-30T13:08:07.932Z,0.15
2023-03-30T13:10:40.508Z,0.20
2023-03-30T13:13:24.220Z,0.10
2023-03-30T13:15:54.743Z,0.20
2023-03-30T13:18:24.714Z,2.58
2023-03-30T13:20:51.803Z,0.80
2023-03-30T13:23:19.870Z,0.65
2023-03-30T13:26:15.173Z,1.23
2023-03-30T13:28:48.240Z,1.13
2023-03-30T13:31:38.034Z,2.03
2023-03-30T13:34:27.863Z,3.80
2023-03-30T13:36:54.896Z,3.28
2023-03-30T13:39:42.444Z,3.10
2023-03-30T13:42:37.982Z,1.10
2023-03-30T13:45:24.847Z,4.10
2023-03-30T13:47:51.991Z,5.68
2023-03-30T13:50:20.438Z,1.73
2023-03-30T13:52:50.462Z,3.80
2023-03-30T13:55:27.603Z,1.88
2023-03-30T13:58:00.459Z,1.40
2023-03-30T14:00:45.226Z,1.38
2023-03-30T14:03:37.923Z,4.43
2023-03-30T14:06:15.436Z,1.90
2023-03-30T14:08:45.270Z,4.00
2023-03-30T14:11:17.121Z,1.85
2023-03-30T14:13:47.943Z,2.13
2023-03-30T14:16:22.288Z,3.08
2023-03-30T14:18:50.464Z,2.80
2023-03-30T14:21:20.730Z,3.45
2023-03-30T14:23:53.580Z,3.35
2023-03-30T14:26:29.385Z,1.63
2023-03-30T14:28:58.000Z,4.18
2023-03-30T14:31:27.325Z,3.13
2023-03-30T14:33:54.824Z,4.13
2023-03-30T14:36:22.566Z,2.55
2023-03-30T14:38:51.425Z,2.70
2023-03-30T14:41:23.709Z,1.80
2023-03-30T14:43:54.227Z,2.72
2023-03-30T14:46:22.191Z,2.88
2023-03-30T14:48:50.898Z,3.38
2023-03-30T14:51:25.476Z,3.78
2023-03-30T14:53:53.498Z,2.38
2023-03-30T14:56:22.606Z,2.08
2023-03-30T14:58:51.923Z,3.15
2023-03-30T15:01:21.441Z,4.10
2023-03-30T15:03:49.013Z,5.10
2023-03-30T15:06:23.198Z,3.20
2023-03-30T15:08:51.498Z,2.97
2023-03-30T15:11:26.973Z,3.88
2023-03-30T15:13:57.698Z,3.80
2023-03-30T15:16:27.967Z,3.08
2023-03-30T15:19:00.424Z,4.57
2023-03-30T15:21:28.736Z,2.92
2023-03-30T15:23:58.480Z,2.10
2023-03-30T15:26:27.040Z,2.20
2023-03-30T15:28:56.695Z,3.05
2023-03-30T15:31:24.401Z,2.50
2023-03-30T15:33:53.999Z,3.63
2023-03-30T15:36:23.169Z,3.28
2023-03-30T15:38:51.905Z,3.00
2023-03-30T15:41:22.193Z,4.45
2023-03-30T15:43:53.632Z,1.85
2023-03-30T15:46:20.741Z,2.50
2023-03-30T15:48:49.531Z,2.20
2023-03-30T15:51:17.622Z,2.22
2023-03-30T15:53:55.962Z,1.73
2023-03-30T15:56:27.860Z,1.77
2023-03-30T15:58:54.908Z,1.13
2023-03-30T16:01:23.293Z,3.58
2023-03-30T16:03:53.582Z,2.33
2023-03-30T16:06:23.224Z,2.92
2023-03-30T16:08:50.334Z,2.83
2023-03-30T16:11:18.622Z,1.75
2023-03-30T16:13:47.877Z,4.47
2023-03-30T16:16:15.915Z,2.50
2023-03-30T16:18:43.077Z,3.42
2023-03-30T16:21:10.875Z,2.10
2023-03-30T16:23:38.135Z,1.80
2023-03-30T16:26:06.003Z,2.42
2023-03-30T16:28:33.280Z,1.35
2023-03-30T16:31:01.969Z,2.92
2023-03-30T16:33:29.474Z,2.92
2023-03-30T16:35:56.620Z,4.28
2023-03-30T16:38:23.718Z,3.95
2023-03-30T16:40:53.105Z,3.03
2023-03-30T16:43:20.448Z,3.17
2023-03-30T16:45:47.622Z,3.25
2023-03-30T16:48:15.194Z,4.07
2023-03-30T16:50:43.688Z,3.47
2023-03-30T16:53:11.103Z,3.22
2023-03-30T16:55:38.998Z,3.55
2023-03-30T16:58:07.274Z,3.13
2023-03-30T17:00:38.484Z,6.40
2023-03-30T17:03:05.646Z,4.05
2023-03-30T17:05:32.871Z,3.63
2023-03-30T17:08:20.716Z,2.65
2023-03-30T17:10:48.156Z,3.42
2023-03-30T17:13:15.458Z,2.45
2023-03-30T17:15:42.611Z,5.45
2023-03-30T17:18:19.930Z,2.30
2023-03-30T17:20:48.258Z,3.42
2023-03-30T17:23:17.337Z,4.57
2023-03-30T17:28:21.101Z,1.45
2023-03-30T17:30:48.534Z,2.90
2023-03-30T17:33:15.694Z,2.67
2023-03-30T17:35:45.512Z,3.13
2023-03-30T17:38:12.662Z,2.08
2023-03-30T17:40:39.831Z,2.80
2023-03-30T17:43:07.927Z,5.28
2023-03-30T17:45:36.991Z,3.92
2023-03-30T17:48:05.371Z,3.42
2023-03-30T17:50:34.270Z,3.75
2023-03-30T17:53:01.742Z,2.75
2023-03-30T17:55:30.457Z,2.20
2023-03-30T17:57:58.096Z,3.13
2023-03-30T18:00:26.489Z,2.10
2023-03-30T18:02:53.838Z,2.03
2023-03-30T18:05:22.134Z,3.28
2023-03-30T18:07:49.292Z,2.15
2023-03-30T18:10:25.357Z,2.65
2023-03-30T18:12:53.623Z,1.90
2023-03-30T18:15:25.308Z,1.85
2023-03-30T18:17:52.737Z,2.92
2023-03-30T18:20:35.672Z,2.60
2023-03-30T18:23:03.037Z,5.43
2023-03-30T18:25:32.742Z,3.75
2023-03-30T18:28:00.553Z,3.60
2023-03-30T18:30:27.660Z,10.35
2023-03-30T18:32:55.508Z,3.67
2023-03-30T18:35:24.061Z,4.13
2023-03-30T18:37:51.409Z,4.05
2023-03-30T18:40:22.836Z,3.67
2023-03-30T18:42:49.912Z,3.92
2023-03-30T18:45:18.539Z,5.88
2023-03-30T18:47:45.980Z,5.72
2023-03-30T18:50:15.492Z,3.72
2023-03-30T18:52:42.699Z,4.22
2023-03-30T18:55:10.514Z,3.90
2023-03-30T18:57:37.683Z,3.38
2023-03-30T19:00:10.985Z,2.78
2023-03-30T19:02:38.295Z,3.47
2023-03-30T19:05:06.481Z,3.30
2023-03-30T19:07:33.594Z,5.00
2023-03-30T19:10:00.627Z,6.03
2023-03-30T19:12:27.260Z,6.63
2023-03-30T19:14:54.313Z,5.97
2023-03-30T19:17:21.452Z,3.35
2023-03-30T19:19:48.146Z,3.97
2023-03-30T19:22:15.216Z,6.20
2023-03-30T19:24:42.352Z,2.45
2023-03-30T19:27:09.449Z,4.93
2023-03-30T19:29:36.653Z,4.13
2023-03-30T19:32:03.789Z,3.38
2023-03-30T19:34:30.455Z,4.22
2023-03-30T19:36:58.589Z,5.50
2023-03-30T19:39:26.005Z,3.60
2023-03-30T19:41:53.050Z,5.22
2023-03-30T19:44:20.478Z,4.70
2023-03-30T19:46:47.852Z,3.38
2023-03-30T19:49:15.002Z,4.53
2023-03-30T19:51:42.072Z,2.47
2023-03-30T19:54:09.208Z,2.53
2023-03-30T19:56:37.230Z,3.08
2023-03-30T19:59:04.362Z,4.28
2023-03-30T20:01:31.360Z,3.28
2023-03-30T20:03:59.538Z,2.85
2023-03-30T20:06:26.870Z,3.00
2023-03-30T20:08:54.916Z,2.10
2023-03-30T20:11:22.386Z,2.75
2023-03-30T20:13:49.900Z,4.57
2023-03-30T20:16:21.048Z,4.88
2023-03-30T20:18:50.579Z,3.85
2023-03-30T20:21:19.185Z,2.90
2023-03-30T20:23:46.663Z,4.53
2023-03-30T20:26:16.647Z,2.72
2023-03-30T20:28:44.153Z,4.90
2023-03-30T20:31:11.854Z,1.65
2023-03-30T20:33:39.241Z,2.92
2023-03-30T20:36:07.057Z,1.98
2023-03-30T20:38:34.336Z,3.25
2023-03-30T20:41:04.067Z,1.38
2023-03-30T20:43:36.514Z,6.60
2023-03-30T20:46:09.439Z,2.72
2023-03-30T20:48:39.098Z,1.67
2023-03-30T20:51:07.747Z,2.13
2023-03-30T20:53:35.667Z,3.30
2023-03-30T20:56:04.357Z,3.10
2023-03-30T20:58:31.617Z,1.42
2023-03-30T21:00:59.276Z,2.20
2023-03-30T21:03:29.538Z,2.08
2023-03-30T21:06:01.283Z,2.38
2023-03-30T21:08:28.610Z,3.72
2023-03-30T21:10:55.973Z,2.60
2023-03-30T21:13:23.034Z,2.47
2023-03-30T21:16:07.618Z,1.77
2023-03-30T21:18:35.833Z,4.13
2023-03-30T21:21:03.470Z,4.20
2023-03-30T21:23:30.552Z,2.92
2023-03-30T21:25:58.804Z,2.33
2023-03-30T21:28:28.506Z,3.17
2023-03-30T21:30:56.588Z,4.03
2023-03-30T21:33:24.393Z,4.10
2023-03-30T21:35:52.215Z,3.03
2023-03-30T21:38:20.982Z,5.65
2023-03-30T21:41:04.696Z,4.13
2023-03-30T21:43:33.059Z,5.68
2023-03-30T21:46:01.754Z,7.20
2023-03-30T21:48:30.830Z,7.22
2023-03-30T21:50:59.117Z,5.65
2023-03-30T21:53:26.642Z,6.55
2023-03-30T21:55:53.873Z,5.25
2023-03-30T21:58:21.490Z,4.75
2023-03-30T22:00:53.458Z,5.80
2023-03-30T22:03:28.491Z,3.42
2023-03-30T22:05:59.651Z,2.10
2023-03-30T22:08:27.246Z,3.97
2023-03-30T22:10:59.258Z,6.20
2023-03-30T22:13:26.863Z,6.05
2023-03-30T22:16:03.930Z,5.35
2023-03-30T22:18:31.464Z,6.28
2023-03-30T22:20:59.233Z,6.70
2023-03-30T22:23:26.390Z,5.18
2023-03-30T22:25:53.593Z,4.40
2023-03-30T22:28:20.595Z,4.28
2023-03-30T22:30:47.707Z,5.43
2023-03-30T22:33:15.851Z,3.97
2023-03-30T22:35:43.848Z,6.10
2023-03-30T22:38:11.648Z,7.22
2023-03-30T22:40:41.711Z,4.90
2023-03-30T22:43:09.506Z,3.67
2023-03-30T22:45:38.202Z,4.10
2023-03-30T22:48:05.424Z,4.55
2023-03-30T22:50:33.789Z,5.03
2023-03-30T22:53:01.283Z,4.85
2023-03-30T22:55:28.091Z,2.63
2023-03-30T22:57:57.030Z,2.45
2023-03-30T23:00:24.597Z,7.18
2023-03-30T23:02:51.802Z,4.10
2023-03-30T23:05:21.405Z,3.15
2023-03-30T23:07:49.538Z,5.22
2023-03-30T23:10:19.360Z,3.53
2023-03-30T23:12:46.904Z,2.75
2023-03-30T23:15:14.530Z,6.35
2023-03-30T23:17:42.985Z,3.00
2023-03-30T23:20:10.639Z,2.58
2023-03-30T23:22:38.396Z,3.97
2023-03-30T23:25:06.415Z,2.63
2023-03-30T23:27:33.935Z,4.63
2023-03-30T23:30:00.998Z,2.70
2023-03-30T23:32:28.254Z,6.85
2023-03-30T23:34:55.354Z,5.28
2023-03-30T23:37:22.680Z,3.97
2023-03-30T23:39:49.973Z,4.30
2023-03-30T23:42:18.145Z,4.38
2023-03-30T23:44:45.326Z,5.40
2023-03-30T23:47:12.414Z,6.68
2023-03-30T23:49:39.522Z,5.53
2023-03-30T23:52:06.586Z,6.45
2023-03-30T23:54:37.263Z,3.05
2023-03-30T23:57:07.323Z,2.22
2023-03-30T23:59:34.935Z,6.45
